Terminal Aerodrome Forecast
Issued by NWS

Home | Current Version | Previous Version | Text Only | Print | Product List | Glossary On
Versions: 1 2 3 4 5 6 7 8 9 10 11 12 13 14 15 16 17 18 19 20 21 22
000
FTUS44 KOUN 040521
TAFGAG
TAF
KGAG 040521Z 0406/0506 17016KT P6SM VCTS BKN120CB OVC250
     FM041400 19017G27KT P6SM SCT050 BKN250
     FM050000 17014KT P6SM BKN100 OVC250 PROB30 0500/0504 4SM TSRA
      BKN050CB=

USA.gov is the U.S. government's official web portal to all federal, state and local government web resources and services.